地図

経路データ

SID SEASON NUMBER BASIN SUBBASIN NAME ISO_TIME NATURE LAT LON WMO_WIND WMO_PRES WMO_AGENCY TRACK_TYPE DIST2LAND LANDFALL IFLAG USA_AGENCY USA_ATCF_ID USA_LAT USA_LON USA_RECORD USA_STATUS USA_WIND USA_PRES USA_SSHS USA_R34_NE USA_R34_SE USA_R34_SW USA_R34_NW USA_R50_NE USA_R50_SE USA_R50_SW USA_R50_NW USA_R64_NE USA_R64_SE USA_R64_SW USA_R64_NW USA_POCI USA_ROCI USA_RMW USA_EYE TOKYO_LAT TOKYO_LON TOKYO_GRADE TOKYO_WIND TOKYO_PRES TOKYO_R50_DIR TOKYO_R50_LONG TOKYO_R50_SHORT TOKYO_R30_DIR TOKYO_R30_LONG TOKYO_R30_SHORT TOKYO_LAND CMA_LAT CMA_LON CMA_CAT CMA_WIND CMA_PRES HKO_LAT HKO_LON HKO_CAT HKO_WIND HKO_PRES NEWDELHI_LAT NEWDELHI_LON NEWDELHI_GRADE NEWDELHI_WIND NEWDELHI_PRES NEWDELHI_CI NEWDELHI_DP NEWDELHI_POCI REUNION_LAT REUNION_LON REUNION_TYPE REUNION_WIND REUNION_PRES REUNION_TNUM REUNION_CI REUNION_RMW REUNION_R34_NE REUNION_R34_SE REUNION_R34_SW REUNION_R34_NW REUNION_R50_NE REUNION_R50_SE REUNION_R50_SW REUNION_R50_NW REUNION_R64_NE REUNION_R64_SE REUNION_R64_SW REUNION_R64_NW BOM_LAT BOM_LON BOM_TYPE BOM_WIND BOM_PRES BOM_TNUM BOM_CI BOM_RMW BOM_R34_NE BOM_R34_SE BOM_R34_SW BOM_R34_NW BOM_R50_NE BOM_R50_SE BOM_R50_SW BOM_R50_NW BOM_R64_NE BOM_R64_SE BOM_R64_SW BOM_R64_NW BOM_ROCI BOM_POCI BOM_EYE BOM_POS_METHOD BOM_PRES_METHOD NADI_LAT NADI_LON NADI_CAT NADI_WIND NADI_PRES WELLINGTON_LAT WELLINGTON_LON WELLINGTON_WIND WELLINGTON_PRES DS824_LAT DS824_LON DS824_STAGE DS824_WIND DS824_PRES TD9636_LAT TD9636_LON TD9636_STAGE TD9636_WIND TD9636_PRES TD9635_LAT TD9635_LON TD9635_WIND TD9635_PRES TD9635_ROCI NEUMANN_LAT NEUMANN_LON NEUMANN_CLASS NEUMANN_WIND NEUMANN_PRES MLC_LAT MLC_LON MLC_CLASS MLC_WIND MLC_PRES USA_GUST BOM_GUST BOM_GUST_PER REUNION_GUST REUNION_GUST_PER USA_SEAHGT USA_SEARAD_NE USA_SEARAD_SE USA_SEARAD_SW USA_SEARAD_NW STORM_SPEED STORM_DIR
1922303N11147 1922 60 WP MM NOT_NAMED 1922-10-29 22:00:00 NR 11.3000 146.900 main 1501 1501 __________O___ -1 11.3000 146.900 2 12 306
1922303N11147 1922 60 WP MM NOT_NAMED 1922-10-30 00:00:00 NR 11.5461 146.560 main 1523 1535 __________P___ -1 11.5461 146.560 2 12 307
1922303N11147 1922 60 WP MM NOT_NAMED 1922-10-30 03:00:00 NR 11.9165 146.052 main 1569 1570 __________P___ -1 11.9165 146.052 2 12 307
1922303N11147 1922 60 WP MM NOT_NAMED 1922-10-30 06:00:00 NR 12.2905 145.550 main 1617 1617 __________P___ -1 12.2905 145.550 2 12 308
1922303N11147 1922 60 WP MM NOT_NAMED 1922-10-30 09:00:00 NR 12.6712 145.060 main 1666 1667 __________P___ -1 12.6712 145.060 2 12 309
1922303N11147 1922 60 WP MM NOT_NAMED 1922-10-30 10:00:00 NR 12.8000 144.900 main 1679 1679 __________O___ -1 12.8000 144.900 2 12 310
1922303N11147 1922 60 WP MM NOT_NAMED 1922-10-30 12:00:00 NR 13.0623 144.587 main 1717 1717 __________P___ -1 13.0623 144.587 2 12 313
1922303N11147 1922 60 WP MM NOT_NAMED 1922-10-30 15:00:00 NR 13.4805 144.142 main 1769 1769 __________P___ -1 13.4805 144.142 2 12 317
1922303N11147 1922 60 WP MM NOT_NAMED 1922-10-30 18:00:00 NR 13.9503 143.740 main 1831 1831 __________P___ -1 13.9503 143.740 2 13 325
1922303N11147 1922 60 WP MM NOT_NAMED 1922-10-30 21:00:00 NR 14.4966 143.398 main 1892 1892 __________P___ -1 14.4966 143.398 2 13 330
1922303N11147 1922 60 WP MM NOT_NAMED 1922-10-30 22:00:00 NR 14.7000 143.300 main 1910 1910 __________O___ -1 14.7000 143.300 2 14 337
1922303N11147 1922 60 WP MM NOT_NAMED 1922-10-31 00:00:00 NR 15.1453 143.119 main 1929 1918 __________P___ -1 15.1453 143.119 2 15 342
1922303N11147 1922 60 WP MM NOT_NAMED 1922-10-31 03:00:00 NR 15.8892 142.903 main 1922 1917 __________P___ -1 15.8892 142.903 2 16 347
1922303N11147 1922 60 WP MM NOT_NAMED 1922-10-31 06:00:00 NR 16.6935 142.745 main 1919 1901 __________P___ -1 16.6935 142.745 2 17 351
1922303N11147 1922 60 WP MM NOT_NAMED 1922-10-31 09:00:00 NR 17.5236 142.630 main 1901 1869 __________P___ -1 17.5236 142.630 2 17 353
1922303N11147 1922 60 WP MM NOT_NAMED 1922-10-31 10:00:00 NR 17.8000 142.600 main 1869 1803 __________O___ -1 17.8000 142.600 2 17 352
1922303N11147 1922 60 WP MM NOT_NAMED 1922-10-31 12:00:00 NR 18.3693 142.504 main 1803 1715 __________P___ -1 18.3693 142.504 2 17 352
1922303N11147 1922 60 WP MM NOT_NAMED 1922-10-31 15:00:00 NR 19.2307 142.392 main 1715 1618 __________P___ -1 19.2307 142.392 2 17 355
1922303N11147 1922 60 WP MM NOT_NAMED 1922-10-31 18:00:00 NR 20.0538 142.338 main 1618 1550 __________P___ -1 20.0538 142.338 2 16 359
1922303N11147 1922 60 WP MM NOT_NAMED 1922-10-31 21:00:00 NR 20.7856 142.367 main 1550 1529 __________P___ -1 20.7856 142.367 2 14 3
1922303N11147 1922 60 WP MM NOT_NAMED 1922-10-31 22:00:00 NR 21.0000 142.400 main 1529 1493 __________O___ -1 21.0000 142.400 2 12 12
1922303N11147 1922 60 WP MM NOT_NAMED 1922-11-01 00:00:00 NR 21.3658 142.498 main 1493 1461 __________P___ -1 21.3658 142.498 2 10 20
1922303N11147 1922 60 WP MM NOT_NAMED 1922-11-01 03:00:00 NR 21.8138 142.728 main 1461 1435 __________P___ -1 21.8138 142.728 2 10 31
1922303N11147 1922 60 WP MM NOT_NAMED 1922-11-01 06:00:00 NR 22.1771 143.031 main 1435 1419 __________P___ -1 22.1771 143.031 2 9 41
1922303N11147 1922 60 WP MM NOT_NAMED 1922-11-01 09:00:00 NR 22.4963 143.379 main 1422 1415 __________P___ -1 22.4963 143.379 2 9 46
1922303N11147 1922 60 WP MM NOT_NAMED 1922-11-01 10:00:00 NR 22.6000 143.500 main 1415 1399 __________O___ -1 22.6000 143.500 2 9 47
1922303N11147 1922 60 WP MM NOT_NAMED 1922-11-01 12:00:00 NR 22.8101 143.745 main 1399 1375 __________P___ -1 22.8101 143.745 2 9 47
1922303N11147 1922 60 WP MM NOT_NAMED 1922-11-01 15:00:00 NR 23.1320 144.116 main 1378 1347 __________P___ -1 23.1320 144.116 2 9 47
1922303N11147 1922 60 WP MM NOT_NAMED 1922-11-01 18:00:00 NR 23.4595 144.493 main 1347 1326 __________P___ -1 23.4595 144.493 2 10 47
1922303N11147 1922 60 WP MM NOT_NAMED 1922-11-01 21:00:00 NR 23.7898 144.873 main 1329 1322 __________P___ -1 23.7898 144.873 2 10 47
1922303N11147 1922 60 WP MM NOT_NAMED 1922-11-01 22:00:00 NR 23.9000 145.000 main 1322 __________O___ -1 23.9000 145.000 7 10 48

デジタル台風データ・検索

IBTrACS Databaseについて

本データベースは、米国NOAAが公開する1842年以降の世界の熱帯低気圧のベストトラックデータアーカイブInternational Best Track Archive for Climate Stewardship (IBTrACS)を、ウェブで閲覧しやすい形式に変換したものです。

最終更新日:2021-10-21